Time;durP1;ratioP1;P1;durP2;ratioP2;P2;SDS_P1;SDS_P2;PMS_P1;PMS_P2;Temp;Humidity;BMP_temperature;BMP_pressure;BME280_temperature;BME280_humidity;BME280_pressure;Samples;Min_cycle;Max_cycle;Signal;HPM_P1;HPM_P2
2022/09/14 00:00:46;;;;;;;5.63;1.60;;;20.30;99.90;;;;;;2090355;28;20056;-70
2022/09/14 00:01:47;;;;;;;6.07;1.48;;;20.30;99.90;;;;;;2093583;28;20039;-70
2022/09/14 00:02:48;;;;;;;7.40;1.65;;;20.30;99.90;;;;;;2093845;28;20090;-70
2022/09/14 00:03:55;;;;;;;7.53;1.88;;;20.30;99.90;;;;;;2092346;28;20460;-70
2022/09/14 00:04:56;;;;;;;7.05;2.25;;;20.20;99.90;;;;;;2091092;28;20039;-70
2022/09/14 00:06:03;;;;;;;2.85;1.40;;;20.20;99.90;;;;;;2090380;28;20040;-70
2022/09/14 00:07:03;;;;;;;3.30;1.20;;;20.20;99.90;;;;;;2090574;28;20036;-70
2022/09/14 00:08:04;;;;;;;4.18;1.27;;;20.20;99.90;;;;;;2092516;28;20033;-70
2022/09/14 00:09:10;;;;;;;3.13;1.10;;;20.20;99.90;;;;;;2090794;28;20111;-70
2022/09/14 00:10:10;;;;;;;4.10;1.17;;;20.10;99.90;;;;;;2091455;28;20097;-70
2022/09/14 00:11:13;;;;;;;6.60;1.58;;;20.20;99.90;;;;;;2092564;28;20044;-70
2022/09/14 00:12:14;;;;;;;5.85;1.77;;;20.20;99.90;;;;;;2091782;28;20025;-70
2022/09/14 00:13:15;;;;;;;5.35;1.45;;;20.20;99.90;;;;;;2091460;28;20498;-70
2022/09/14 00:14:16;;;;;;;6.30;1.67;;;20.10;99.90;;;;;;2090284;28;20016;-70
2022/09/14 00:15:17;;;;;;;5.20;1.10;;;20.10;99.90;;;;;;2094162;28;20032;-70
2022/09/14 00:16:24;;;;;;;3.47;1.25;;;20.10;99.90;;;;;;2093287;28;20024;-70
2022/09/14 00:17:25;;;;;;;4.35;1.67;;;20.10;99.90;;;;;;2092934;28;20107;-70
2022/09/14 00:18:27;;;;;;;5.20;1.33;;;20.10;99.90;;;;;;2091876;28;20479;-70
2022/09/14 00:19:28;;;;;;;3.88;1.38;;;20.10;99.90;;;;;;2092468;28;20055;-70
2022/09/14 00:20:29;;;;;;;8.95;1.90;;;20.00;99.90;;;;;;2091200;28;20020;-70
2022/09/14 00:21:30;;;;;;;6.38;1.50;;;20.10;99.90;;;;;;2092767;28;20519;-70
2022/09/14 00:22:31;;;;;;;5.13;1.83;;;20.10;99.90;;;;;;2092693;28;20483;-70
2022/09/14 00:23:33;;;;;;;4.05;1.38;;;20.00;99.90;;;;;;2091891;28;20383;-70
2022/09/14 00:24:34;;;;;;;4.25;1.25;;;20.00;99.90;;;;;;2091643;28;20032;-70
2022/09/14 00:25:34;;;;;;;5.30;1.65;;;20.10;99.90;;;;;;2092710;28;20143;-70
2022/09/14 00:26:36;;;;;;;7.30;1.67;;;20.00;99.90;;;;;;2092243;28;20052;-70
2022/09/14 00:27:36;;;;;;;3.97;1.30;;;20.00;99.90;;;;;;2091899;28;20029;-70
2022/09/14 00:28:52;;;;;;;7.38;1.83;;;20.00;99.90;;;;;;2090917;28;20039;-70
2022/09/14 00:29:52;;;;;;;5.88;1.13;;;20.00;99.90;;;;;;2092999;28;20418;-70
2022/09/14 00:30:53;;;;;;;5.68;1.23;;;20.00;99.90;;;;;;2092404;28;20036;-70
2022/09/14 00:31:54;;;;;;;4.82;1.35;;;20.00;99.90;;;;;;2091585;28;20428;-70
2022/09/14 00:32:55;;;;;;;5.95;1.45;;;19.90;99.90;;;;;;2092906;28;20033;-70
2022/09/14 00:33:56;;;;;;;6.03;1.65;;;20.00;99.90;;;;;;2092181;28;20033;-71
2022/09/14 00:34:56;;;;;;;8.85;1.85;;;19.90;99.90;;;;;;2091102;28;20118;-70
2022/09/14 00:36:13;;;;;;;11.02;2.08;;;19.90;99.90;;;;;;2091444;28;20032;-70
2022/09/14 00:37:13;;;;;;;3.83;1.38;;;19.90;99.90;;;;;;2092907;28;20048;-70
2022/09/14 00:38:14;;;;;;;4.32;1.40;;;19.90;99.90;;;;;;2091753;28;20075;-70
2022/09/14 00:39:16;;;;;;;7.93;1.60;;;19.90;99.90;;;;;;2092189;28;20487;-70
2022/09/14 00:40:17;;;;;;;8.75;1.90;;;19.90;99.90;;;;;;2091711;28;20032;-70
2022/09/14 00:41:22;;;;;;;7.38;1.58;;;19.90;99.90;;;;;;2093381;28;20112;-70
2022/09/14 00:42:22;;;;;;;5.70;1.73;;;19.90;99.90;;;;;;2094949;28;20524;-70
2022/09/14 00:43:23;;;;;;;4.82;1.20;;;19.80;99.90;;;;;;2094123;28;20430;-70
2022/09/14 00:44:24;;;;;;;3.70;1.50;;;19.90;99.90;;;;;;2093089;28;20040;-70
2022/09/14 00:45:26;;;;;;;9.18;2.33;;;19.90;99.90;;;;;;2091778;28;20147;-70
2022/09/14 00:46:29;;;;;;;6.60;1.73;;;19.90;99.90;;;;;;2094366;28;20811;-70
2022/09/14 00:47:31;;;;;;;4.65;1.35;;;19.90;99.90;;;;;;2093224;28;20376;-70
2022/09/14 00:48:32;;;;;;;5.47;1.70;;;19.80;99.90;;;;;;2093900;28;20107;-70
2022/09/14 00:49:42;;;;;;;4.63;1.55;;;19.80;99.90;;;;;;2094452;28;20093;-70
2022/09/14 00:50:42;;;;;;;5.43;1.63;;;19.80;99.90;;;;;;2093001;28;20078;-70
2022/09/14 00:51:58;;;;;;;5.80;1.80;;;19.80;99.90;;;;;;2100672;28;20459;-70
2022/09/14 00:52:59;;;;;;;3.80;1.30;;;19.80;99.90;;;;;;2099176;28;20024;-70
2022/09/14 00:54:05;;;;;;;5.38;1.80;;;19.80;99.90;;;;;;2094631;28;20036;-70
2022/09/14 00:55:11;;;;;;;7.65;1.70;;;19.80;99.90;;;;;;2095785;28;20021;-70
2022/09/14 00:56:13;;;;;;;4.05;1.75;;;19.80;99.90;;;;;;2092998;28;20028;-70
2022/09/14 00:57:15;;;;;;;5.15;1.50;;;19.80;99.90;;;;;;2095425;28;20020;-70
2022/09/14 00:58:15;;;;;;;7.47;2.05;;;19.80;99.90;;;;;;2093346;28;20039;-70
2022/09/14 00:59:21;;;;;;;6.95;1.58;;;19.80;99.90;;;;;;2092848;28;20061;-70
2022/09/14 01:00:25;;;;;;;5.60;1.35;;;19.80;99.90;;;;;;2092871;28;20028;-70
2022/09/14 01:01:25;;;;;;;8.45;1.80;;;19.70;99.90;;;;;;2093433;28;20025;-70
2022/09/14 01:02:27;;;;;;;7.60;2.08;;;19.70;99.90;;;;;;2092361;28;20583;-70
2022/09/14 01:03:27;;;;;;;6.13;1.58;;;19.70;99.90;;;;;;2093006;28;20082;-70
2022/09/14 01:04:28;;;;;;;6.85;1.58;;;19.70;99.90;;;;;;2094693;28;20070;-70
2022/09/14 01:05:46;;;;;;;5.50;1.90;;;19.70;99.90;;;;;;2093151;28;20383;-70
2022/09/14 01:07:11;;;;;;;7.47;1.92;;;19.70;99.90;;;;;;2093729;28;20029;-70
2022/09/14 01:08:32;;;;;;;4.72;1.60;;;19.70;99.90;;;;;;2094860;28;20780;-70
2022/09/14 01:09:42;;;;;;;7.05;1.50;;;19.60;99.90;;;;;;2093483;28;20036;-70
2022/09/14 01:11:21;;;;;;;6.43;1.45;;;19.60;99.90;;;;;;2092982;28;20026;-70
2022/09/14 01:12:46;;;;;;;6.93;1.58;;;19.50;99.90;;;;;;2092976;28;20388;-70
2022/09/14 01:14:14;;;;;;;5.22;1.60;;;19.50;99.90;;;;;;2093845;28;20075;-70
2022/09/14 01:15:25;;;;;;;6.40;1.60;;;19.50;99.90;;;;;;2093810;28;20550;-70
2022/09/14 01:16:40;;;;;;;6.10;1.77;;;19.50;99.90;;;;;;2093700;28;20571;-70
2022/09/14 01:17:46;;;;;;;9.63;1.80;;;19.50;99.90;;;;;;2092570;28;20032;-70
2022/09/14 01:18:55;;;;;;;3.70;1.42;;;19.40;99.90;;;;;;2092368;28;20017;-70
2022/09/14 01:20:06;;;;;;;4.80;1.40;;;19.40;99.90;;;;;;2093877;28;20053;-70
2022/09/14 01:21:19;;;;;;;6.53;1.95;;;19.40;99.90;;;;;;2093837;28;20024;-70
2022/09/14 01:22:51;;;;;;;4.95;1.67;;;19.30;99.90;;;;;;2094805;28;20020;-70
2022/09/14 01:24:06;;;;;;;6.95;1.35;;;19.30;99.90;;;;;;2093575;28;20021;-70
2022/09/14 01:25:29;;;;;;;4.65;1.50;;;19.30;99.90;;;;;;2100542;28;20024;-70
2022/09/14 01:27:10;;;;;;;7.35;1.83;;;19.30;99.90;;;;;;2085992;28;20033;-70
2022/09/14 01:28:27;;;;;;;6.68;1.63;;;19.30;99.90;;;;;;2094446;28;20056;-70
2022/09/14 01:29:51;;;;;;;7.32;1.55;;;19.20;99.90;;;;;;2094411;28;20111;-70
2022/09/14 01:30:57;;;;;;;5.90;1.90;;;19.20;99.90;;;;;;2093547;28;20523;-70
2022/09/14 01:32:06;;;;;;;5.70;1.35;;;19.20;99.90;;;;;;2093311;28;20024;-70
2022/09/14 01:33:29;;;;;;;7.97;1.88;;;19.20;99.90;;;;;;2093357;28;20082;-70
2022/09/14 01:34:54;;;;;;;7.45;2.00;;;19.20;99.90;;;;;;2093632;28;20055;-70
2022/09/14 01:35:57;;;;;;;5.22;1.70;;;19.10;99.90;;;;;;2093961;28;20043;-70
2022/09/14 01:37:05;;;;;;;8.02;1.70;;;19.10;99.90;;;;;;2092022;28;20123;-70
2022/09/14 01:38:19;;;;;;;4.82;1.50;;;19.10;99.90;;;;;;2092779;28;20424;-70
2022/09/14 01:39:21;;;;;;;4.93;1.40;;;19.10;99.90;;;;;;2093817;28;20020;-70
2022/09/14 01:40:43;;;;;;;5.68;1.67;;;19.10;99.90;;;;;;2094154;28;20057;-70
2022/09/14 01:41:45;;;;;;;5.43;1.20;;;19.10;99.90;;;;;;2094341;28;20036;-71
2022/09/14 01:42:59;;;;;;;4.88;1.38;;;19.10;99.90;;;;;;2094147;28;20081;-70
2022/09/14 01:44:20;;;;;;;6.38;1.63;;;19.10;99.90;;;;;;2093933;28;20070;-70
2022/09/14 01:45:22;;;;;;;4.50;2.00;;;19.10;99.90;;;;;;2092890;28;20028;-70
2022/09/14 01:46:58;;;;;;;9.35;1.83;;;19.10;99.90;;;;;;2093163;28;20022;-70
2022/09/14 01:48:06;;;;;;;4.72;1.35;;;19.00;99.90;;;;;;2091328;28;20443;-70
2022/09/14 01:49:31;;;;;;;5.70;1.48;;;19.00;99.90;;;;;;2092761;28;20059;-70
2022/09/14 01:50:38;;;;;;;5.50;1.20;;;19.00;99.90;;;;;;2095150;28;20077;-70
2022/09/14 01:51:53;;;;;;;4.05;1.30;;;19.00;99.90;;;;;;2092773;28;20056;-70
2022/09/14 01:52:59;;;;;;;8.60;1.73;;;19.00;99.90;;;;;;2094175;28;20593;-70
2022/09/14 01:54:15;;;;;;;8.10;1.83;;;19.00;99.90;;;;;;2092737;28;20040;-70
2022/09/14 01:55:26;;;;;;;3.90;1.50;;;19.00;99.90;;;;;;2091818;28;20074;-70
2022/09/14 01:56:36;;;;;;;6.88;1.58;;;19.00;99.90;;;;;;2093442;28;20755;-70
2022/09/14 01:58:12;;;;;;;6.65;1.63;;;19.00;99.90;;;;;;2094266;28;20019;-70
2022/09/14 01:59:18;;;;;;;6.45;1.48;;;18.90;99.90;;;;;;2093377;28;20024;-70
2022/09/14 02:00:20;;;;;;;6.47;1.75;;;19.00;99.90;;;;;;2092191;28;20032;-70
2022/09/14 02:01:25;;;;;;;10.23;1.88;;;19.00;99.90;;;;;;2093183;28;20048;-70
2022/09/14 02:02:33;;;;;;;6.80;1.55;;;18.90;99.90;;;;;;2092321;28;20583;-70
2022/09/14 02:03:43;;;;;;;4.93;1.52;;;19.00;99.90;;;;;;2093279;28;20024;-70
2022/09/14 02:05:00;;;;;;;4.65;1.30;;;19.00;99.90;;;;;;2091864;28;20220;-70
2022/09/14 02:06:21;;;;;;;5.13;1.52;;;18.90;99.90;;;;;;2093098;28;20538;-70
2022/09/14 02:07:22;;;;;;;7.30;1.95;;;18.90;99.90;;;;;;2088039;28;20557;-70
2022/09/14 02:08:26;;;;;;;3.83;1.20;;;19.00;99.90;;;;;;2093165;28;20446;-70
2022/09/14 02:09:27;;;;;;;4.20;1.38;;;18.90;99.90;;;;;;2093075;28;20020;-70
2022/09/14 02:10:28;;;;;;;7.40;1.67;;;18.90;99.90;;;;;;2093535;28;20111;-70
2022/09/14 02:11:28;;;;;;;5.47;1.27;;;19.00;99.90;;;;;;2093561;28;20514;-70
2022/09/14 02:12:29;;;;;;;5.28;1.52;;;18.90;99.90;;;;;;2093877;28;20029;-70
2022/09/14 02:13:30;;;;;;;9.60;2.13;;;18.90;99.90;;;;;;2091793;28;20025;-70
2022/09/14 02:14:31;;;;;;;5.53;1.45;;;18.90;99.90;;;;;;2092786;28;20033;-70
2022/09/14 02:15:33;;;;;;;4.47;1.65;;;18.90;99.90;;;;;;2093837;28;20787;-70
2022/09/14 02:16:34;;;;;;;6.10;1.52;;;18.90;99.90;;;;;;2093927;28;20024;-70
2022/09/14 02:17:35;;;;;;;7.78;2.17;;;18.90;99.90;;;;;;2093614;28;20039;-70
2022/09/14 02:18:37;;;;;;;6.78;1.55;;;18.90;99.90;;;;;;2093867;28;20021;-70
2022/09/14 02:19:46;;;;;;;7.75;1.45;;;18.90;99.90;;;;;;2094053;28;20028;-70
2022/09/14 02:21:00;;;;;;;7.32;1.80;;;18.90;99.90;;;;;;2093820;28;20456;-70
2022/09/14 02:22:01;;;;;;;5.20;1.30;;;18.90;99.90;;;;;;2091250;28;20399;-70
2022/09/14 02:23:02;;;;;;;4.05;1.55;;;18.90;99.90;;;;;;2093402;28;20027;-70
2022/09/14 02:24:03;;;;;;;4.53;1.85;;;18.90;99.90;;;;;;2092548;28;20025;-70
2022/09/14 02:25:04;;;;;;;6.80;1.63;;;18.90;99.90;;;;;;2092857;28;20029;-70
2022/09/14 02:26:05;;;;;;;5.90;1.10;;;18.90;99.90;;;;;;2094625;28;20140;-70
2022/09/14 02:27:06;;;;;;;4.45;1.48;;;18.90;99.90;;;;;;2093236;28;20048;-70
2022/09/14 02:28:07;;;;;;;5.90;1.55;;;18.90;99.90;;;;;;2093474;28;20024;-70
2022/09/14 02:29:07;;;;;;;5.13;1.30;;;18.90;99.90;;;;;;2094168;28;20067;-70
2022/09/14 02:30:09;;;;;;;5.60;1.65;;;18.90;99.90;;;;;;2092230;28;20028;-70
2022/09/14 02:31:18;;;;;;;6.90;1.63;;;18.90;99.90;;;;;;2092919;28;20800;-70
2022/09/14 02:32:36;;;;;;;5.60;2.03;;;18.90;99.90;;;;;;2093444;28;20107;-70
2022/09/14 02:33:37;;;;;;;4.82;1.48;;;18.90;99.90;;;;;;2092269;28;20021;-70
2022/09/14 02:34:46;;;;;;;5.63;1.40;;;18.90;99.90;;;;;;2093995;28;20051;-70
2022/09/14 02:35:52;;;;;;;7.45;2.00;;;18.90;99.90;;;;;;2091782;28;20043;-70
2022/09/14 02:37:15;;;;;;;3.28;1.20;;;18.90;99.90;;;;;;2092694;28;20523;-70
2022/09/14 02:38:39;;;;;;;8.07;1.88;;;18.90;99.90;;;;;;2092459;28;20108;-70
2022/09/14 02:39:55;;;;;;;3.33;1.42;;;18.90;99.90;;;;;;2092688;28;20021;-70
2022/09/14 02:41:17;;;;;;;9.75;1.88;;;18.90;99.90;;;;;;2091506;28;20119;-70
2022/09/14 02:42:33;;;;;;;6.70;1.50;;;18.90;99.90;;;;;;2093930;28;20040;-70
2022/09/14 02:43:58;;;;;;;4.47;1.55;;;18.90;99.90;;;;;;2094626;28;20035;-70
2022/09/14 02:45:27;;;;;;;6.75;1.70;;;18.80;99.90;;;;;;2092694;28;20040;-70
2022/09/14 02:46:48;;;;;;;6.32;1.90;;;18.90;99.90;;;;;;2092552;28;20032;-70
2022/09/14 02:48:04;;;;;;;7.60;1.70;;;18.80;99.90;;;;;;2092693;28;20666;-70
2022/09/14 02:49:38;;;;;;;5.57;1.40;;;18.80;99.90;;;;;;2091193;28;20195;-70
2022/09/14 02:50:58;;;;;;;3.38;1.40;;;18.80;99.90;;;;;;2090342;28;20041;-70
2022/09/14 02:52:14;;;;;;;3.28;1.30;;;18.80;99.90;;;;;;2093823;28;20029;-70
2022/09/14 02:53:43;;;;;;;9.18;2.20;;;18.80;99.90;;;;;;2095391;28;20024;-70
2022/09/14 02:55:08;;;;;;;4.60;1.67;;;18.80;99.90;;;;;;2093004;28;20082;-71
2022/09/14 02:56:09;;;;;;;5.30;1.30;;;18.80;99.90;;;;;;2091938;28;20025;-71
2022/09/14 02:57:10;;;;;;;4.25;1.38;;;18.80;99.90;;;;;;2093124;28;20023;-70
2022/09/14 02:58:13;;;;;;;9.65;1.73;;;18.80;99.90;;;;;;2092874;28;20799;-70
2022/09/14 02:59:14;;;;;;;9.27;1.38;;;18.80;99.90;;;;;;2094388;28;20027;-70
2022/09/14 03:00:14;;;;;;;7.15;1.70;;;18.80;99.90;;;;;;2090602;28;20036;-70
2022/09/14 03:01:19;;;;;;;6.90;2.03;;;18.80;99.90;;;;;;2091659;28;20021;-70
2022/09/14 03:02:20;;;;;;;5.78;1.70;;;18.90;99.90;;;;;;2093008;28;20040;-70
2022/09/14 03:03:21;;;;;;;4.68;1.40;;;18.80;99.90;;;;;;2090782;28;20029;-70
2022/09/14 03:04:22;;;;;;;3.60;1.02;;;18.90;99.90;;;;;;2090770;28;20025;-70
2022/09/14 03:05:22;;;;;;;8.10;1.83;;;18.90;99.90;;;;;;2092347;28;20051;-70
2022/09/14 03:06:23;;;;;;;4.47;1.60;;;18.90;99.90;;;;;;2091476;28;20020;-70
2022/09/14 03:07:23;;;;;;;8.63;1.40;;;18.90;99.90;;;;;;2092654;28;20033;-70
2022/09/14 03:08:25;;;;;;;5.50;1.15;;;18.90;99.90;;;;;;2091597;28;20028;-70
2022/09/14 03:09:26;;;;;;;2.88;1.20;;;18.90;99.90;;;;;;2092058;28;20021;-70
2022/09/14 03:10:27;;;;;;;4.50;1.50;;;18.90;99.90;;;;;;2092917;28;20028;-70
2022/09/14 03:11:27;;;;;;;5.25;1.48;;;18.90;99.90;;;;;;2093802;28;20025;-70
2022/09/14 03:12:28;;;;;;;3.63;1.45;;;18.90;99.90;;;;;;2090965;28;20020;-71
2022/09/14 03:13:29;;;;;;;6.03;1.80;;;18.90;99.90;;;;;;2091508;28;20020;-71
2022/09/14 03:14:29;;;;;;;5.55;1.73;;;18.90;99.90;;;;;;2093257;28;20154;-70
2022/09/14 03:15:30;;;;;;;4.47;1.67;;;18.90;99.90;;;;;;2093373;28;20482;-72
2022/09/14 03:16:31;;;;;;;7.95;1.58;;;18.90;99.90;;;;;;2092640;28;20498;-71
2022/09/14 03:17:31;;;;;;;4.95;1.20;;;18.90;99.90;;;;;;2092938;28;20095;-70
2022/09/14 03:18:33;;;;;;;6.45;1.48;;;18.90;99.90;;;;;;2092791;28;20032;-70
2022/09/14 03:19:33;;;;;;;3.95;1.60;;;18.90;99.90;;;;;;2094712;28;20100;-70
2022/09/14 03:20:35;;;;;;;8.13;1.88;;;18.90;99.90;;;;;;2094491;28;20044;-70
2022/09/14 03:21:38;;;;;;;5.63;1.80;;;18.90;99.90;;;;;;2092619;28;20029;-70
2022/09/14 03:22:38;;;;;;;6.25;1.55;;;18.90;99.90;;;;;;2092246;28;20110;-70
2022/09/14 03:23:43;;;;;;;7.00;1.88;;;18.90;99.90;;;;;;2092720;28;20127;-70
2022/09/14 03:24:44;;;;;;;4.75;1.42;;;18.90;99.90;;;;;;2093111;28;20021;-70
2022/09/14 03:25:45;;;;;;;9.00;1.98;;;18.90;99.90;;;;;;2093261;28;20032;-70
2022/09/14 03:26:46;;;;;;;3.25;0.98;;;18.90;99.90;;;;;;2093926;28;20043;-71
2022/09/14 03:27:51;;;;;;;4.97;1.20;;;18.90;99.90;;;;;;2093496;28;20476;-70
2022/09/14 03:28:57;;;;;;;3.03;1.17;;;19.00;99.90;;;;;;2092354;28;20036;-70
2022/09/14 03:29:57;;;;;;;4.20;1.80;;;18.90;99.90;;;;;;2092093;28;20032;-70
2022/09/14 03:31:02;;;;;;;4.05;1.45;;;18.90;99.90;;;;;;2093142;28;20052;-70
2022/09/14 03:32:03;;;;;;;6.05;1.30;;;19.00;99.90;;;;;;2092181;28;20514;-70
2022/09/14 03:33:04;;;;;;;3.90;1.20;;;18.90;99.90;;;;;;2091388;28;20395;-70
2022/09/14 03:34:04;;;;;;;6.03;1.52;;;19.00;99.90;;;;;;2093953;28;20459;-70
2022/09/14 03:35:06;;;;;;;4.90;1.40;;;19.00;99.90;;;;;;2091997;28;20059;-70
2022/09/14 03:36:15;;;;;;;5.60;1.52;;;19.00;99.90;;;;;;2093096;28;20666;-70
2022/09/14 03:37:16;;;;;;;3.70;1.13;;;19.00;99.90;;;;;;2093480;28;20028;-72
2022/09/14 03:38:16;;;;;;;6.75;1.48;;;18.90;99.90;;;;;;2092788;28;20029;-70
2022/09/14 03:39:17;;;;;;;6.30;1.70;;;19.00;99.90;;;;;;2092142;28;20025;-70
2022/09/14 03:40:17;;;;;;;5.25;1.42;;;19.00;99.90;;;;;;2093387;28;20025;-72
2022/09/14 03:41:19;;;;;;;4.43;1.52;;;19.00;99.90;;;;;;2092215;28;20021;-72
2022/09/14 03:42:20;;;;;;;4.57;1.45;;;19.00;99.90;;;;;;2092693;28;20085;-70
2022/09/14 03:43:20;;;;;;;4.28;1.13;;;19.00;99.90;;;;;;2093495;28;20032;-70
2022/09/14 03:44:21;;;;;;;4.55;1.45;;;19.00;99.90;;;;;;2091245;28;20046;-70
2022/09/14 03:45:22;;;;;;;7.03;1.88;;;19.00;99.90;;;;;;2093155;28;20103;-70
2022/09/14 03:46:24;;;;;;;4.00;1.83;;;19.00;99.90;;;;;;2092073;28;20013;-70
2022/09/14 03:47:25;;;;;;;5.68;1.88;;;19.00;99.90;;;;;;2093280;28;20016;-72
2022/09/14 03:48:25;;;;;;;4.80;1.60;;;19.00;99.90;;;;;;2092047;28;20028;-72
2022/09/14 03:49:26;;;;;;;3.60;1.40;;;19.00;99.90;;;;;;2092406;28;20020;-72
2022/09/14 03:50:26;;;;;;;5.43;1.38;;;19.00;99.90;;;;;;2092124;28;20082;-72
2022/09/14 03:51:27;;;;;;;7.40;1.83;;;18.90;99.90;;;;;;2093771;28;20376;-72
2022/09/14 03:52:27;;;;;;;3.90;1.40;;;18.90;99.90;;;;;;2093273;28;20480;-72
2022/09/14 03:53:29;;;;;;;6.32;1.45;;;18.90;99.90;;;;;;2091476;28;20020;-72
2022/09/14 03:54:29;;;;;;;5.63;1.50;;;18.90;99.90;;;;;;2089365;28;20028;-72
2022/09/14 03:55:30;;;;;;;6.00;1.20;;;18.90;99.90;;;;;;2090619;28;20040;-72
2022/09/14 03:56:30;;;;;;;4.63;1.83;;;18.90;99.90;;;;;;2092042;28;20743;-72
2022/09/14 03:57:31;;;;;;;8.68;1.85;;;18.90;99.90;;;;;;2093236;28;20027;-72
2022/09/14 03:58:32;;;;;;;8.95;1.88;;;18.90;99.90;;;;;;2094057;28;20063;-72
2022/09/14 03:59:33;;;;;;;4.05;1.80;;;18.90;99.90;;;;;;2090861;28;20043;-72
2022/09/14 04:00:35;;;;;;;3.80;1.40;;;18.80;99.90;;;;;;2091815;28;20041;-72
2022/09/14 04:01:37;;;;;;;3.67;1.67;;;18.80;99.90;;;;;;2091648;28;20020;-72
2022/09/14 04:02:38;;;;;;;4.72;1.45;;;18.80;99.90;;;;;;2089705;28;20028;-72
2022/09/14 04:03:39;;;;;;;7.13;2.00;;;18.80;99.90;;;;;;2088819;28;20042;-72
2022/09/14 04:04:39;;;;;;;3.85;1.50;;;18.80;99.90;;;;;;2092159;28;20116;-72
2022/09/14 04:05:40;;;;;;;5.18;1.40;;;18.80;99.90;;;;;;2089591;28;20108;-72
2022/09/14 04:06:41;;;;;;;4.28;1.70;;;18.80;99.90;;;;;;2091448;28;20035;-72
2022/09/14 04:07:41;;;;;;;9.45;2.00;;;18.80;99.90;;;;;;2091482;28;20048;-72
2022/09/14 04:08:44;;;;;;;5.90;1.90;;;18.80;99.90;;;;;;2089912;28;20617;-72
2022/09/14 04:09:44;;;;;;;4.60;1.30;;;18.70;99.90;;;;;;2091503;28;20023;-71
2022/09/14 04:10:45;;;;;;;6.53;1.65;;;18.70;99.90;;;;;;2090449;28;20036;-72
2022/09/14 04:11:46;;;;;;;3.72;1.60;;;18.70;99.90;;;;;;2092464;28;20426;-72
2022/09/14 04:12:47;;;;;;;4.97;1.40;;;18.70;99.90;;;;;;2093034;28;20028;-72
2022/09/14 04:13:48;;;;;;;4.57;1.20;;;18.70;99.90;;;;;;2090577;28;20104;-72
2022/09/14 04:14:49;;;;;;;5.55;1.42;;;18.70;99.90;;;;;;2092614;28;20042;-72
2022/09/14 04:15:59;;;;;;;6.78;1.90;;;18.70;99.90;;;;;;2090569;28;20142;-72
2022/09/14 04:17:00;;;;;;;5.75;1.50;;;18.70;99.90;;;;;;2091191;28;20031;-72
2022/09/14 04:18:01;;;;;;;5.55;1.88;;;18.70;99.90;;;;;;2098934;28;20067;-72
2022/09/14 04:19:02;;;;;;;7.28;1.85;;;18.70;99.90;;;;;;2099100;28;20024;-72
2022/09/14 04:20:03;;;;;;;6.53;1.85;;;18.70;99.90;;;;;;2092012;28;20032;-72
2022/09/14 04:21:08;;;;;;;5.57;1.80;;;18.70;99.90;;;;;;2092943;28;20057;-72
2022/09/14 04:22:08;;;;;;;5.18;1.85;;;18.70;99.90;;;;;;2091191;28;20564;-72
2022/09/14 04:23:09;;;;;;;5.32;1.55;;;18.70;99.90;;;;;;2090908;28;20577;-72
2022/09/14 04:24:12;;;;;;;5.53;1.42;;;18.70;99.90;;;;;;2090853;28;20063;-72
2022/09/14 04:25:13;;;;;;;5.80;1.55;;;18.70;99.90;;;;;;2090322;28;20028;-72
2022/09/14 04:26:16;;;;;;;3.97;1.50;;;18.70;99.90;;;;;;2091663;28;20025;-72
2022/09/14 04:27:17;;;;;;;5.88;1.98;;;18.70;99.90;;;;;;2090208;28;20031;-72
2022/09/14 04:28:18;;;;;;;5.30;1.60;;;18.70;99.90;;;;;;2089506;28;20052;-72
2022/09/14 04:29:19;;;;;;;4.20;1.65;;;18.70;99.90;;;;;;2093086;28;20523;-72
2022/09/14 04:30:20;;;;;;;5.40;2.00;;;18.70;99.90;;;;;;2091206;28;20549;-72
2022/09/14 04:31:20;;;;;;;7.50;1.98;;;18.70;99.90;;;;;;2091002;28;20681;-72
2022/09/14 04:32:21;;;;;;;5.32;1.80;;;18.70;99.90;;;;;;2089983;28;20029;-72
2022/09/14 04:33:22;;;;;;;4.68;1.67;;;18.70;99.90;;;;;;2091917;28;20029;-72
2022/09/14 04:34:23;;;;;;;5.95;2.05;;;18.70;99.90;;;;;;2091249;28;20343;-72
2022/09/14 04:35:23;;;;;;;5.80;1.80;;;18.70;99.90;;;;;;2089988;28;20175;-72
2022/09/14 04:36:28;;;;;;;6.47;1.73;;;18.70;99.90;;;;;;2091094;28;20024;-72
2022/09/14 04:37:31;;;;;;;4.15;1.40;;;18.70;99.90;;;;;;2091637;28;20023;-72
2022/09/14 04:38:32;;;;;;;4.60;1.70;;;18.70;99.90;;;;;;2089452;28;20562;-72
2022/09/14 04:39:33;;;;;;;5.10;1.77;;;18.60;99.90;;;;;;2089864;28;20095;-72
2022/09/14 04:40:33;;;;;;;6.25;1.90;;;18.60;99.90;;;;;;2090034;28;20032;-72
2022/09/14 04:41:34;;;;;;;8.77;1.75;;;18.60;99.90;;;;;;2090612;28;20040;-72
2022/09/14 04:42:34;;;;;;;7.35;1.60;;;18.70;99.90;;;;;;2090273;28;20033;-72
2022/09/14 04:43:35;;;;;;;4.32;1.70;;;18.70;99.90;;;;;;2091737;28;20768;-72
2022/09/14 04:44:36;;;;;;;4.13;1.30;;;18.60;99.90;;;;;;2089009;28;20107;-72
2022/09/14 04:45:36;;;;;;;3.70;1.50;;;18.60;99.90;;;;;;2089774;28;20017;-72
2022/09/14 04:46:38;;;;;;;3.35;1.38;;;18.70;99.90;;;;;;2090851;28;20046;-72
2022/09/14 04:47:39;;;;;;;5.25;1.63;;;18.70;99.90;;;;;;2098251;28;20016;-72
2022/09/14 04:48:40;;;;;;;4.90;1.77;;;18.70;99.90;;;;;;2099104;28;20128;-72
2022/09/14 04:49:41;;;;;;;5.25;1.80;;;18.70;99.90;;;;;;2090918;28;20036;-72
2022/09/14 04:50:42;;;;;;;5.30;1.48;;;18.70;99.90;;;;;;2100206;28;20044;-72
2022/09/14 04:51:43;;;;;;;3.85;1.52;;;18.70;99.90;;;;;;2098238;28;20494;-72
2022/09/14 04:52:44;;;;;;;6.75;1.80;;;18.70;99.90;;;;;;2090939;28;20055;-72
2022/09/14 04:53:50;;;;;;;3.85;1.60;;;18.70;99.90;;;;;;2093500;28;20024;-72
2022/09/14 04:54:51;;;;;;;8.43;1.83;;;18.70;99.90;;;;;;2090866;28;20078;-72
2022/09/14 04:55:51;;;;;;;7.03;2.05;;;18.60;99.90;;;;;;2089866;28;20078;-72
2022/09/14 04:56:52;;;;;;;4.32;1.80;;;18.60;99.90;;;;;;2088709;28;20485;-73
2022/09/14 04:57:53;;;;;;;4.35;1.63;;;18.60;99.90;;;;;;2088674;28;20532;-72
2022/09/14 04:58:57;;;;;;;6.95;1.92;;;18.60;99.90;;;;;;2091911;28;20223;-72
2022/09/14 04:59:58;;;;;;;4.57;1.40;;;18.60;99.90;;;;;;2092436;28;20043;-72
2022/09/14 05:01:07;;;;;;;6.35;1.42;;;18.60;99.90;;;;;;2091152;28;20494;-72
2022/09/14 05:02:07;;;;;;;2.72;1.23;;;18.60;99.90;;;;;;2093100;28;20079;-72
2022/09/14 05:03:08;;;;;;;6.28;1.77;;;18.60;99.90;;;;;;2088962;28;20073;-72
2022/09/14 05:04:10;;;;;;;5.90;1.80;;;18.50;99.90;;;;;;2090150;28;20036;-72
2022/09/14 05:05:11;;;;;;;8.38;1.80;;;18.60;99.90;;;;;;2091770;28;20115;-72
2022/09/14 05:06:14;;;;;;;8.05;1.85;;;18.60;99.90;;;;;;2090272;28;20033;-72
2022/09/14 05:07:15;;;;;;;7.35;1.85;;;18.60;99.90;;;;;;2091036;28;20087;-72
2022/09/14 05:08:15;;;;;;;4.22;1.45;;;18.50;99.90;;;;;;2088327;28;20033;-72
2022/09/14 05:09:17;;;;;;;6.35;1.73;;;18.60;99.90;;;;;;2091199;28;20114;-72
2022/09/14 05:10:18;;;;;;;6.35;1.88;;;18.50;99.90;;;;;;2090990;28;20730;-72
2022/09/14 05:11:21;;;;;;;7.72;1.75;;;18.50;99.90;;;;;;2091691;28;20054;-72
2022/09/14 05:12:22;;;;;;;6.75;1.42;;;18.50;99.90;;;;;;2088215;28;20754;-73
2022/09/14 05:13:23;;;;;;;8.18;1.70;;;18.50;99.90;;;;;;2090501;28;20381;-73
2022/09/14 05:14:23;;;;;;;3.80;1.30;;;18.50;99.90;;;;;;2091756;28;20100;-72
2022/09/14 05:15:24;;;;;;;4.80;1.63;;;18.50;99.90;;;;;;2091165;28;20040;-72
2022/09/14 05:16:30;;;;;;;7.18;2.10;;;18.50;99.90;;;;;;2091394;28;20025;-72
2022/09/14 05:17:34;;;;;;;7.40;1.80;;;18.50;99.90;;;;;;2092757;28;20021;-72
2022/09/14 05:18:35;;;;;;;5.38;2.15;;;18.50;99.90;;;;;;2092263;28;20028;-72
2022/09/14 05:19:35;;;;;;;7.65;2.50;;;18.50;99.90;;;;;;2092908;28;20017;-72
2022/09/14 05:20:36;;;;;;;8.73;2.17;;;18.50;99.90;;;;;;2091136;28;20044;-72
2022/09/14 05:21:36;;;;;;;7.50;1.95;;;18.50;99.90;;;;;;2091314;28;20104;-72
2022/09/14 05:22:37;;;;;;;2.70;1.60;;;18.50;99.90;;;;;;2092497;28;20025;-72
2022/09/14 05:23:38;;;;;;;8.02;1.80;;;18.50;99.90;;;;;;2091869;28;20467;-72
2022/09/14 05:24:39;;;;;;;4.75;1.92;;;18.50;99.90;;;;;;2095445;28;20058;-72
2022/09/14 05:25:39;;;;;;;6.28;1.92;;;18.50;99.90;;;;;;2094758;28;20024;-72
2022/09/14 05:26:42;;;;;;;6.63;1.77;;;18.50;99.90;;;;;;2091233;28;20432;-73
2022/09/14 05:27:42;;;;;;;4.47;1.77;;;18.40;99.90;;;;;;2100313;28;20060;-73
2022/09/14 05:28:48;;;;;;;5.68;2.25;;;18.50;99.90;;;;;;2100471;28;20099;-72
2022/09/14 05:29:48;;;;;;;3.85;1.58;;;18.40;99.90;;;;;;2093649;28;20071;-72
2022/09/14 05:30:49;;;;;;;4.50;1.58;;;18.40;99.90;;;;;;2092608;28;20045;-72
2022/09/14 05:31:49;;;;;;;6.80;1.70;;;18.40;99.90;;;;;;2093310;28;20406;-72
2022/09/14 05:32:50;;;;;;;3.72;1.40;;;18.50;99.90;;;;;;2093659;28;20020;-72
2022/09/14 05:33:51;;;;;;;7.22;2.15;;;18.50;99.90;;;;;;2094210;28;20162;-72
2022/09/14 05:34:52;;;;;;;4.15;1.38;;;18.50;99.90;;;;;;2094458;28;20021;-72
2022/09/14 05:36:00;;;;;;;6.90;1.52;;;18.40;99.90;;;;;;2092500;28;20035;-72
2022/09/14 05:37:00;;;;;;;4.78;1.40;;;18.50;99.90;;;;;;2093930;28;20139;-72
2022/09/14 05:38:01;;;;;;;4.57;1.63;;;18.50;99.90;;;;;;2093725;28;20510;-72
2022/09/14 05:39:02;;;;;;;5.88;1.70;;;18.40;99.90;;;;;;2094851;28;20032;-72